createdAt,value
2017-11-18T00:01:32.377Z,46.13
2017-11-18T00:03:59.865Z,46.80
2017-11-18T00:06:28.136Z,49.33
2017-11-18T00:08:55.632Z,51.50
2017-11-18T00:11:23.901Z,51.87
2017-11-18T00:13:51.394Z,52.47
2017-11-18T00:16:19.658Z,52.20
2017-11-18T00:18:47.271Z,51.67
2017-11-18T00:21:14.761Z,51.90
2017-11-18T00:23:42.260Z,49.60
2017-11-18T00:26:09.749Z,53.27
2017-11-18T00:28:38.021Z,50.13
2017-11-18T00:31:05.505Z,48.63
2017-11-18T00:33:33.005Z,47.13
2017-11-18T00:36:00.486Z,48.97
2017-11-18T00:38:28.765Z,47.53
2017-11-18T00:40:56.258Z,48.13
2017-11-18T00:43:23.773Z,52.13
2017-11-18T00:45:51.257Z,51.83
2017-11-18T00:48:19.542Z,54.87
2017-11-18T00:50:47.788Z,53.57
2017-11-18T00:53:15.289Z,53.27
2017-11-18T00:55:42.764Z,53.60
2017-11-18T00:58:10.269Z,54.53
2017-11-18T01:00:37.752Z,52.80
2017-11-18T01:03:05.258Z,54.50
2017-11-18T01:05:32.749Z,56.43
2017-11-18T01:08:01.022Z,55.57
2017-11-18T01:10:28.517Z,56.43
2017-11-18T01:12:56.058Z,56.97
2017-11-18T01:15:23.545Z,53.40
2017-11-18T01:17:51.826Z,53.37
2017-11-18T01:20:19.312Z,55.07
2017-11-18T01:22:48.465Z,55.43
2017-11-18T01:25:15.970Z,54.77
2017-11-18T01:27:43.465Z,52.53
2017-11-18T01:30:11.737Z,54.80
2017-11-18T01:32:39.216Z,53.27
2017-11-18T01:35:07.486Z,50.50
2017-11-18T01:37:34.982Z,51.30
2017-11-18T01:40:03.249Z,49.80
2017-11-18T01:42:30.741Z,50.30
2017-11-18T01:44:59.008Z,52.00
2017-11-18T01:47:26.501Z,49.47
2017-11-18T01:49:54.014Z,50.43
2017-11-18T01:52:21.492Z,48.07
2017-11-18T01:54:49.002Z,49.23
2017-11-18T01:57:17.252Z,48.00
2017-11-18T01:59:44.753Z,47.67
2017-11-18T02:05:16.645Z,48.20
2017-11-18T02:07:44.131Z,45.43
2017-11-18T02:10:12.402Z,48.17
2017-11-18T02:12:39.881Z,48.77
2017-11-18T02:15:07.389Z,48.47
2017-11-18T02:17:34.872Z,46.10
2017-11-18T02:20:02.402Z,44.37
2017-11-18T02:22:30.657Z,46.83
2017-11-18T02:24:58.162Z,45.90
2017-11-18T02:27:26.412Z,46.03
2017-11-18T02:29:53.917Z,44.67
2017-11-18T02:32:22.181Z,44.40
2017-11-18T02:34:49.702Z,44.20
2017-11-18T02:37:17.201Z,42.83
2017-11-18T02:39:44.692Z,40.33
2017-11-18T02:42:12.211Z,39.30
2017-11-18T02:44:39.705Z,41.47
2017-11-18T02:47:07.225Z,41.53
2017-11-18T02:49:35.481Z,40.17
2017-11-18T02:52:02.988Z,42.47
2017-11-18T02:54:31.249Z,41.60
2017-11-18T02:56:58.754Z,43.13
2017-11-18T02:59:27.014Z,43.03
2017-11-18T03:01:54.537Z,44.03
2017-11-18T03:04:22.026Z,43.47
2017-11-18T03:06:49.533Z,39.53
2017-11-18T03:09:17.013Z,40.17
2017-11-18T03:11:45.281Z,42.63
2017-11-18T03:14:12.766Z,43.77
2017-11-18T03:16:41.046Z,40.80
2017-11-18T03:19:08.535Z,38.77
2017-11-18T03:21:36.800Z,40.40
2017-11-18T03:24:04.285Z,42.73
2017-11-18T03:26:32.558Z,41.23
2017-11-18T03:29:00.044Z,37.50
2017-11-18T03:31:28.328Z,39.00
2017-11-18T03:33:56.581Z,36.40
2017-11-18T03:36:24.105Z,36.87
2017-11-18T03:38:51.597Z,32.93
2017-11-18T03:41:19.080Z,33.70
2017-11-18T03:43:46.589Z,34.43
2017-11-18T03:46:14.072Z,35.27
2017-11-18T03:48:42.349Z,36.87
2017-11-18T03:51:09.832Z,35.60
2017-11-18T03:53:38.101Z,36.00
2017-11-18T03:56:05.586Z,33.73
2017-11-18T03:58:33.855Z,31.80
2017-11-18T04:01:01.341Z,33.57
2017-11-18T04:03:29.613Z,32.10
2017-11-18T04:05:57.101Z,33.87
2017-11-18T04:08:25.377Z,34.80
2017-11-18T04:10:52.865Z,31.00
2017-11-18T04:13:21.137Z,31.07
2017-11-18T04:15:48.623Z,30.80
2017-11-18T04:18:16.893Z,30.73
2017-11-18T04:20:44.380Z,32.60
2017-11-18T04:23:12.648Z,31.27
2017-11-18T04:25:40.127Z,30.30
2017-11-18T04:28:07.630Z,31.23
2017-11-18T04:30:35.121Z,30.93
2017-11-18T04:33:02.617Z,31.40
2017-11-18T04:35:30.094Z,30.70
2017-11-18T04:37:57.606Z,29.87
2017-11-18T04:40:25.088Z,28.87
2017-11-18T04:42:52.576Z,31.40
2017-11-18T04:45:20.079Z,30.90
2017-11-18T04:47:47.561Z,29.60
2017-11-18T04:50:15.058Z,31.13
2017-11-18T04:52:42.532Z,31.23
2017-11-18T04:55:10.037Z,31.30
2017-11-18T04:57:37.524Z,30.03
2017-11-18T05:00:05.043Z,30.70
2017-11-18T05:02:32.528Z,29.27
2017-11-18T05:05:00.032Z,31.87
2017-11-18T05:07:27.514Z,30.97
2017-11-18T05:09:55.017Z,32.03
2017-11-18T05:12:22.497Z,31.83
2017-11-18T05:14:49.997Z,29.33
2017-11-18T05:17:17.485Z,31.23
2017-11-18T05:19:44.993Z,29.73
2017-11-18T05:22:12.476Z,27.07
2017-11-18T05:24:39.977Z,30.60
2017-11-18T05:27:07.466Z,30.87
2017-11-18T05:29:34.975Z,30.90
2017-11-18T05:32:02.460Z,29.53
2017-11-18T05:34:29.961Z,27.50
2017-11-18T05:36:57.442Z,28.07
2017-11-18T05:39:24.925Z,28.03
2017-11-18T05:41:52.421Z,29.93
2017-11-18T05:44:19.905Z,28.93
2017-11-18T05:46:47.413Z,30.30
2017-11-18T05:49:14.896Z,30.90
2017-11-18T05:51:42.389Z,31.40
2017-11-18T05:54:10.633Z,31.23
2017-11-18T05:56:38.130Z,29.73
2017-11-18T05:59:05.617Z,31.37
2017-11-18T06:01:33.885Z,30.90
2017-11-18T06:04:01.374Z,30.93
2017-11-18T06:06:29.654Z,32.33
2017-11-18T06:08:57.908Z,30.33
2017-11-18T06:11:25.413Z,31.30
2017-11-18T06:13:53.661Z,29.77
2017-11-18T06:16:21.165Z,30.93
2017-11-18T06:18:48.642Z,29.73
2017-11-18T06:21:16.916Z,30.20
2017-11-18T06:23:44.401Z,31.30
2017-11-18T06:26:12.669Z,31.00
2017-11-18T06:28:40.159Z,31.47
2017-11-18T06:31:08.438Z,30.23
2017-11-18T06:33:35.920Z,31.70
2017-11-18T06:36:04.197Z,29.23
2017-11-18T06:38:31.685Z,27.67
2017-11-18T06:40:59.932Z,27.03
2017-11-18T06:43:27.433Z,25.00
2017-11-18T06:45:55.681Z,26.97
2017-11-18T06:48:23.186Z,26.70
2017-11-18T06:50:51.445Z,25.10
2017-11-18T06:53:18.953Z,25.07
2017-11-18T06:55:47.204Z,23.40
2017-11-18T06:58:14.704Z,26.40
2017-11-18T07:00:42.176Z,25.57
2017-11-18T07:03:10.446Z,24.23
2017-11-18T07:05:37.928Z,24.80
2017-11-18T07:08:05.429Z,21.70
2017-11-18T07:10:32.917Z,23.73
2017-11-18T07:13:00.421Z,23.57
2017-11-18T07:15:27.909Z,21.93
2017-11-18T07:17:56.189Z,25.03
2017-11-18T07:20:23.677Z,22.20
2017-11-18T07:22:51.955Z,21.10
2017-11-18T07:25:20.209Z,21.33
2017-11-18T07:27:47.705Z,22.83
2017-11-18T07:30:15.185Z,20.67
2017-11-18T07:32:42.690Z,22.70
2017-11-18T07:35:10.174Z,23.47
2017-11-18T07:37:37.698Z,21.60
2017-11-18T07:40:05.941Z,21.90
2017-11-18T07:42:33.451Z,22.67
2017-11-18T07:45:00.933Z,21.20
2017-11-18T07:47:29.180Z,20.50
2017-11-18T07:49:56.672Z,22.70
2017-11-18T07:52:24.153Z,21.27
2017-11-18T07:54:52.421Z,22.10
2017-11-18T07:57:19.902Z,21.80
2017-11-18T07:59:47.407Z,21.40
2017-11-18T08:02:14.919Z,20.43
2017-11-18T08:04:42.434Z,20.53
2017-11-18T08:07:09.926Z,20.10
2017-11-18T08:09:37.434Z,20.43
2017-11-18T08:12:04.921Z,21.70
2017-11-18T08:14:32.434Z,20.07
2017-11-18T08:16:59.921Z,18.10
2017-11-18T08:19:27.417Z,19.27
2017-11-18T08:21:54.894Z,18.90
2017-11-18T08:24:22.394Z,19.77
2017-11-18T08:26:50.645Z,19.43
2017-11-18T08:29:18.144Z,21.60
2017-11-18T08:31:46.392Z,20.17
2017-11-18T08:34:13.885Z,19.23
2017-11-18T08:36:42.187Z,18.00
2017-11-18T08:39:09.684Z,19.00
2017-11-18T08:41:37.169Z,16.43
2017-11-18T08:44:04.685Z,17.33
2017-11-18T08:46:32.175Z,22.63
2017-11-18T08:49:00.441Z,22.70
2017-11-18T08:51:27.942Z,19.60
2017-11-18T08:53:55.432Z,18.40
2017-11-18T08:56:22.942Z,23.17
2017-11-18T08:58:50.421Z,18.33
2017-11-18T09:01:17.922Z,24.90
2017-11-18T09:03:46.164Z,19.47
2017-11-18T09:06:13.668Z,15.23
2017-11-18T09:08:41.935Z,17.07
2017-11-18T09:11:09.450Z,16.00
2017-11-18T09:13:36.945Z,16.07
2017-11-18T09:16:04.456Z,15.13
2017-11-18T09:18:31.940Z,16.90
2017-11-18T09:20:59.440Z,15.60
2017-11-18T09:23:26.925Z,16.27
2017-11-18T09:25:54.440Z,15.97
2017-11-18T09:28:22.704Z,17.30
2017-11-18T09:30:50.227Z,16.63
2017-11-18T09:33:17.717Z,23.93
2017-11-18T09:35:45.233Z,16.90
2017-11-18T09:38:13.493Z,15.80
2017-11-18T09:40:41.005Z,15.97
2017-11-18T09:43:08.485Z,16.30
2017-11-18T09:45:36.725Z,16.57
2017-11-18T09:48:04.240Z,16.40
2017-11-18T09:50:32.486Z,15.87
2017-11-18T09:52:59.994Z,16.33
2017-11-18T09:55:27.486Z,15.73
2017-11-18T09:57:54.993Z,15.17
2017-11-18T10:00:22.477Z,22.57
2017-11-18T10:02:49.982Z,17.10
2017-11-18T10:05:17.464Z,13.90
2017-11-18T10:07:44.974Z,13.33
2017-11-18T10:10:12.453Z,13.87
2017-11-18T10:12:39.953Z,12.90
2017-11-18T10:15:08.207Z,14.00
2017-11-18T10:17:35.708Z,14.13
2017-11-18T10:20:03.962Z,12.90
2017-11-18T10:22:31.459Z,13.47
2017-11-18T10:24:58.941Z,12.90
2017-11-18T10:27:27.210Z,12.20
2017-11-18T10:29:54.688Z,12.00
2017-11-18T10:32:22.966Z,11.67
2017-11-18T10:34:50.445Z,12.20
2017-11-18T10:37:17.957Z,10.90
2017-11-18T10:39:45.439Z,12.47
2017-11-18T10:42:12.961Z,12.00
2017-11-18T10:44:41.209Z,11.90
2017-11-18T10:47:08.684Z,12.40
2017-11-18T10:49:36.189Z,10.37
2017-11-18T10:52:04.445Z,12.30
2017-11-18T10:54:31.945Z,12.10
2017-11-18T10:57:00.193Z,12.87
2017-11-18T10:59:27.694Z,10.60
2017-11-18T11:01:55.181Z,12.87
2017-11-18T11:04:23.456Z,11.77
2017-11-18T11:06:50.941Z,11.97
2017-11-18T11:09:19.206Z,11.53
2017-11-18T11:11:46.691Z,10.90
2017-11-18T11:14:14.957Z,10.30
2017-11-18T11:16:42.441Z,10.10
2017-11-18T11:19:10.708Z,10.70
2017-11-18T11:21:38.186Z,10.17
2017-11-18T11:24:05.684Z,10.90
2017-11-18T11:26:33.929Z,10.77
2017-11-18T11:29:01.433Z,9.73
2017-11-18T11:31:29.680Z,10.00
2017-11-18T11:33:57.190Z,10.03
2017-11-18T11:36:25.438Z,10.90
2017-11-18T11:38:52.939Z,8.80
2017-11-18T11:41:20.436Z,11.43
2017-11-18T11:43:48.710Z,9.73
2017-11-18T11:46:16.961Z,10.47
2017-11-18T11:48:44.460Z,9.03
2017-11-18T11:51:11.937Z,8.33
2017-11-18T11:53:40.222Z,12.53
2017-11-18T11:56:08.473Z,12.07
2017-11-18T11:58:35.961Z,13.87
2017-11-18T12:01:03.460Z,10.20
2017-11-18T12:03:30.966Z,8.20
2017-11-18T12:05:58.465Z,7.40
2017-11-18T12:08:25.942Z,10.57
2017-11-18T12:10:53.442Z,9.20
2017-11-18T12:13:21.693Z,7.50
2017-11-18T12:15:49.213Z,8.60
2017-11-18T12:18:16.688Z,7.97
2017-11-18T12:20:44.189Z,6.13
2017-11-18T12:23:11.664Z,6.57
2017-11-18T12:25:39.165Z,6.57
2017-11-18T12:28:06.645Z,7.87
2017-11-18T12:30:34.912Z,5.70
2017-11-18T12:33:02.396Z,4.87
2017-11-18T12:35:30.670Z,5.37
2017-11-18T12:37:58.926Z,4.10
2017-11-18T12:40:26.439Z,3.30
2017-11-18T12:42:53.913Z,4.20
2017-11-18T12:45:22.185Z,6.77
2017-11-18T12:47:49.673Z,7.60
2017-11-18T12:50:17.942Z,5.27
2017-11-18T12:52:45.426Z,5.40
2017-11-18T12:55:13.674Z,8.70
2017-11-18T12:57:41.167Z,4.23
2017-11-18T13:00:08.652Z,5.00
2017-11-18T13:02:36.150Z,3.97
2017-11-18T13:05:03.625Z,5.37
2017-11-18T13:07:31.133Z,4.87
2017-11-18T13:09:58.609Z,4.83
2017-11-18T13:12:26.101Z,5.07
2017-11-18T13:14:53.577Z,9.87
2017-11-18T13:17:21.829Z,4.33
2017-11-18T13:19:49.306Z,4.30
2017-11-18T13:22:16.812Z,4.30
2017-11-18T13:24:45.048Z,4.33
2017-11-18T13:27:12.541Z,3.67
2017-11-18T13:29:40.022Z,4.70
2017-11-18T13:32:07.517Z,4.30
2017-11-18T13:34:35.001Z,6.17
2017-11-18T13:37:02.501Z,3.90
2017-11-18T13:39:29.981Z,3.67
2017-11-18T13:41:57.473Z,5.27
2017-11-18T13:44:25.726Z,4.93
2017-11-18T13:46:53.242Z,4.57
2017-11-18T13:49:21.484Z,4.43
2017-11-18T13:51:49.008Z,4.33
2017-11-18T13:54:16.498Z,5.13
2017-11-18T13:56:44.005Z,4.30
2017-11-18T13:59:11.493Z,4.60
2017-11-18T14:01:39.753Z,4.77
2017-11-18T14:04:07.245Z,5.10
2017-11-18T14:06:34.725Z,4.80
2017-11-18T14:09:02.220Z,5.53
2017-11-18T14:11:30.462Z,4.33
2017-11-18T14:13:57.954Z,5.77
2017-11-18T14:16:25.428Z,4.60
2017-11-18T14:18:52.929Z,6.93
2017-11-18T14:21:20.413Z,13.67
2017-11-18T14:23:48.677Z,9.77
2017-11-18T14:26:16.153Z,5.90
2017-11-18T14:28:43.650Z,5.30
2017-11-18T14:31:11.157Z,4.37
2017-11-18T14:33:38.660Z,8.10
2017-11-18T14:36:06.154Z,7.90
2017-11-18T14:38:33.657Z,7.47
2017-11-18T14:41:01.150Z,6.40
2017-11-18T14:43:28.663Z,5.40
2017-11-18T14:45:56.137Z,5.97
2017-11-18T14:48:23.635Z,4.80
2017-11-18T14:50:51.123Z,4.73
2017-11-18T14:53:18.632Z,5.70
2017-11-18T14:55:46.123Z,5.27
2017-11-18T14:58:13.601Z,17.63
2017-11-18T15:00:41.124Z,9.23
2017-11-18T15:03:09.369Z,4.17
2017-11-18T15:05:36.860Z,4.60
2017-11-18T15:08:04.341Z,4.10
2017-11-18T15:10:32.612Z,4.10
2017-11-18T15:13:00.127Z,3.80
2017-11-18T15:15:31.087Z,4.10
2017-11-18T15:18:04.288Z,3.73
2017-11-18T15:20:37.536Z,4.33
2017-11-18T15:23:10.748Z,4.30
2017-11-18T15:25:43.960Z,3.60
2017-11-18T15:31:28.929Z,5.50
2017-11-18T15:37:21.793Z,7.23
2017-11-18T15:39:50.070Z,9.27
2017-11-18T15:42:17.548Z,4.63
2017-11-18T15:44:47.664Z,4.90
2017-11-18T15:47:30.822Z,5.20
2017-11-18T15:50:04.754Z,4.57
2017-11-18T15:55:58.761Z,4.43
2017-11-18T15:58:29.555Z,12.50
2017-11-18T16:01:02.786Z,4.80
2017-11-18T16:03:34.913Z,5.20
2017-11-18T16:06:02.412Z,5.00
2017-11-18T16:08:29.894Z,5.33
2017-11-18T16:10:57.401Z,5.33
2017-11-18T16:13:24.877Z,3.97
2017-11-18T16:15:53.141Z,4.60
2017-11-18T16:18:20.633Z,5.17
2017-11-18T16:20:48.897Z,5.10
2017-11-18T16:23:16.369Z,4.20
2017-11-18T16:25:43.846Z,6.80
2017-11-18T16:28:12.117Z,5.60
2017-11-18T16:30:39.597Z,5.00
2017-11-18T16:33:07.092Z,5.20
2017-11-18T16:35:35.337Z,5.20
2017-11-18T16:38:02.834Z,4.90
2017-11-18T16:40:30.317Z,5.63
2017-11-18T16:42:58.585Z,5.37
2017-11-18T16:45:26.075Z,6.60
2017-11-18T16:47:54.340Z,5.10
2017-11-18T16:50:21.828Z,5.50
2017-11-18T16:52:49.326Z,4.87
2017-11-18T16:55:16.822Z,4.70
2017-11-18T16:57:44.325Z,4.70
2017-11-18T17:00:11.810Z,4.73
2017-11-18T17:02:40.077Z,4.90
2017-11-18T17:05:07.559Z,5.37
2017-11-18T17:07:35.054Z,4.17
2017-11-18T17:10:03.312Z,4.20
2017-11-18T17:12:30.830Z,4.57
2017-11-18T17:14:58.321Z,10.33
2017-11-18T17:17:25.832Z,3.70
2017-11-18T17:19:53.330Z,4.20
2017-11-18T17:22:20.825Z,3.90
2017-11-18T17:24:48.306Z,4.40
2017-11-18T17:27:17.788Z,4.10
2017-11-18T17:29:45.282Z,4.70
2017-11-18T17:32:12.796Z,4.40
2017-11-18T17:34:41.069Z,3.70
2017-11-18T17:37:08.557Z,4.20
2017-11-18T17:39:36.825Z,3.70
2017-11-18T17:42:04.304Z,4.03
2017-11-18T17:44:31.848Z,4.10
2017-11-18T17:46:59.326Z,3.83
2017-11-18T17:49:26.821Z,3.80
2017-11-18T17:51:54.317Z,4.30
2017-11-18T17:54:21.829Z,3.20
2017-11-18T17:56:49.313Z,4.07
2017-11-18T17:59:16.868Z,5.03
2017-11-18T18:01:44.378Z,7.27
2017-11-18T18:04:11.877Z,4.07
2017-11-18T18:06:39.382Z,4.20
2017-11-18T18:09:06.880Z,3.00
2017-11-18T18:11:34.362Z,3.53
2017-11-18T18:14:01.890Z,3.20
2017-11-18T18:16:29.386Z,3.07
2017-11-18T18:18:56.987Z,3.60
2017-11-18T18:21:25.233Z,3.43
2017-11-18T18:23:52.750Z,3.40
2017-11-18T18:26:20.251Z,4.10
2017-11-18T18:28:47.732Z,3.90
2017-11-18T18:31:15.281Z,3.40
2017-11-18T18:33:42.761Z,3.40
2017-11-18T18:36:10.265Z,4.43
2017-11-18T18:38:37.745Z,3.67
2017-11-18T18:41:05.251Z,3.23
2017-11-18T18:43:32.734Z,3.60
2017-11-18T18:46:00.233Z,4.80
2017-11-18T18:48:27.716Z,4.30
2017-11-18T18:50:55.225Z,4.57
2017-11-18T18:53:22.718Z,4.47
2017-11-18T18:55:50.277Z,5.03
2017-11-18T18:58:17.768Z,5.37
2017-11-18T19:00:45.276Z,6.80
2017-11-18T19:03:12.769Z,4.97
2017-11-18T19:05:41.042Z,4.00
2017-11-18T19:08:09.297Z,3.77
2017-11-18T19:10:36.803Z,4.67
2017-11-18T19:13:04.287Z,4.93
2017-11-18T19:15:32.561Z,4.53
2017-11-18T19:18:00.834Z,6.20
2017-11-18T19:20:28.345Z,8.30
2017-11-18T19:22:55.829Z,4.53
2017-11-18T19:25:23.337Z,5.07
2017-11-18T19:27:50.818Z,4.50
2017-11-18T19:30:18.667Z,3.83
2017-11-18T19:32:46.163Z,4.40
2017-11-18T19:35:13.657Z,5.57
2017-11-18T19:37:41.917Z,5.00
2017-11-18T19:40:09.393Z,4.83
2017-11-18T19:42:36.891Z,4.80
2017-11-18T19:45:05.137Z,5.00
2017-11-18T19:47:32.645Z,5.13
2017-11-18T19:50:00.898Z,5.23
2017-11-18T19:52:28.396Z,5.43
2017-11-18T19:54:55.870Z,6.27
2017-11-18T19:57:24.138Z,7.60
2017-11-18T19:59:51.608Z,6.40
2017-11-18T20:02:19.121Z,6.77
2017-11-18T20:04:46.607Z,6.43
2017-11-18T20:07:14.896Z,6.63
2017-11-18T20:09:42.381Z,6.10
2017-11-18T20:12:09.924Z,6.93
2017-11-18T20:14:37.419Z,6.83
2017-11-18T20:17:04.925Z,7.37
2017-11-18T20:19:32.414Z,8.07
2017-11-18T20:22:00.705Z,7.43
2017-11-18T20:24:28.994Z,7.33
2017-11-18T20:26:56.445Z,8.03
2017-11-18T20:29:24.730Z,7.90
2017-11-18T20:31:52.211Z,7.93
2017-11-18T20:34:20.508Z,8.40
2017-11-18T20:36:47.988Z,8.27
2017-11-18T20:39:15.493Z,8.20
2017-11-18T20:41:42.974Z,7.80
2017-11-18T20:44:10.484Z,8.87
2017-11-18T20:46:38.737Z,8.67
2017-11-18T20:49:06.249Z,8.20
2017-11-18T20:51:33.739Z,7.73
2017-11-18T20:54:01.242Z,8.20
2017-11-18T20:56:28.733Z,8.63
2017-11-18T20:58:56.241Z,9.47
2017-11-18T21:01:23.719Z,9.93
2017-11-18T21:03:51.236Z,8.43
2017-11-18T21:06:18.726Z,10.60
2017-11-18T21:08:47.019Z,9.57
2017-11-18T21:11:15.279Z,9.70
2017-11-18T21:13:42.807Z,11.10
2017-11-18T21:16:10.296Z,11.23
2017-11-18T21:18:37.814Z,9.27
2017-11-18T21:21:06.073Z,9.30
2017-11-18T21:23:33.585Z,9.60
2017-11-18T21:26:01.097Z,10.40
2017-11-18T21:28:28.619Z,10.10
2017-11-18T21:30:56.882Z,9.90
2017-11-18T21:33:24.372Z,10.83
2017-11-18T21:35:52.650Z,10.33
2017-11-18T21:38:20.133Z,10.30
2017-11-18T21:40:48.411Z,10.63
2017-11-18T21:43:15.901Z,10.90
2017-11-18T21:45:44.171Z,11.00
2017-11-18T21:48:11.656Z,9.77
2017-11-18T21:50:39.929Z,10.20
2017-11-18T21:53:07.421Z,10.37
2017-11-18T21:55:34.921Z,10.57
2017-11-18T21:58:02.415Z,11.20
2017-11-18T22:00:29.927Z,10.33
2017-11-18T22:02:58.177Z,10.80
2017-11-18T22:05:25.686Z,10.70
2017-11-18T22:07:53.943Z,10.60
2017-11-18T22:10:21.481Z,11.77
2017-11-18T22:12:48.965Z,10.70
2017-11-18T22:15:16.484Z,10.70
2017-11-18T22:17:44.736Z,13.80
2017-11-18T22:20:12.250Z,13.20
2017-11-18T22:22:39.766Z,16.33
2017-11-18T22:25:07.264Z,13.87
2017-11-18T22:27:35.527Z,11.30
2017-11-18T22:30:03.046Z,11.57
2017-11-18T22:32:30.540Z,11.10
2017-11-18T22:34:58.042Z,12.30
2017-11-18T22:37:25.529Z,13.17
2017-11-18T22:39:53.074Z,12.83
2017-11-18T22:42:20.560Z,12.87
2017-11-18T22:44:48.054Z,10.87
2017-11-18T22:47:16.338Z,11.53
2017-11-18T22:49:44.589Z,12.80
2017-11-18T22:52:12.100Z,12.07
2017-11-18T22:54:40.467Z,13.63
2017-11-18T22:57:07.995Z,11.70
2017-11-18T22:59:35.496Z,14.27
2017-11-18T23:02:03.011Z,12.67
2017-11-18T23:04:30.513Z,14.27
2017-11-18T23:06:58.025Z,13.37
2017-11-18T23:09:25.513Z,13.10
2017-11-18T23:11:53.782Z,13.13
2017-11-18T23:14:21.269Z,13.63
2017-11-18T23:16:48.777Z,12.57
2017-11-18T23:19:16.264Z,13.57
2017-11-18T23:21:43.768Z,13.50
2017-11-18T23:24:11.259Z,13.43
2017-11-18T23:26:38.863Z,13.73
2017-11-18T23:29:06.317Z,14.33
2017-11-18T23:31:33.835Z,12.10
2017-11-18T23:34:01.334Z,13.00
2017-11-18T23:36:29.615Z,14.33
2017-11-18T23:38:57.877Z,13.30
2017-11-18T23:41:25.493Z,12.73
2017-11-18T23:43:53.770Z,13.63
2017-11-18T23:46:22.026Z,12.30
2017-11-18T23:48:49.524Z,12.03
2017-11-18T23:51:17.782Z,14.03
2017-11-18T23:53:45.293Z,14.33
2017-11-18T23:56:13.561Z,11.80
2017-11-18T23:58:41.081Z,13.23
